Time;durP1;ratioP1;P1;durP2;ratioP2;P2;SDS_P1;SDS_P2;PMS_P1;PMS_P2;Temp;Humidity;BMP_temperature;BMP_pressure;BME280_temperature;BME280_humidity;BME280_pressure;Samples;Min_cycle;Max_cycle;Signal;HPM_P1;HPM_P2
2022/05/08 00:00:22;;;;;;;;;23.25;22.75;;;;;16.06;68.24;102055.38;5045299;28;45465;-66
2022/05/08 00:02:49;;;;;;;;;26.25;21.00;;;;;16.07;68.65;102052.69;5046163;28;45430;-68
2022/05/08 00:05:15;;;;;;;;;28.25;21.75;;;;;16.04;68.15;102046.69;5045999;28;45269;-66
2022/05/08 00:07:40;;;;;;;;;29.25;25.50;;;;;15.98;68.91;102050.31;5045876;28;46365;-67
2022/05/08 00:10:06;;;;;;;;;16.25;11.50;;;;;15.97;70.80;102048.59;5052427;28;45295;-67
2022/05/08 00:12:31;;;;;;;;;21.00;19.50;;;;;15.94;68.64;102053.09;5049849;28;45146;-65
2022/05/08 00:14:57;;;;;;;;;21.25;20.00;;;;;15.92;68.86;102049.66;5046243;28;45240;-67
2022/05/08 00:17:22;;;;;;;;;22.50;21.00;;;;;15.88;69.73;102048.88;5045882;28;45411;-67
2022/05/08 00:19:47;;;;;;;;;26.50;22.75;;;;;15.84;69.47;102052.50;5045689;28;45437;-67
2022/05/08 00:22:14;;;;;;;;;20.25;18.00;;;;;15.80;69.22;102046.47;5045799;28;45489;-67
2022/05/08 00:24:40;;;;;;;;;25.50;21.50;;;;;15.82;70.75;102051.69;5045476;28;45493;-67
2022/05/08 00:27:06;;;;;;;;;27.50;20.00;;;;;15.77;70.44;102050.94;5045643;28;46461;-68
2022/05/08 00:29:32;;;;;;;;;21.00;20.25;;;;;15.76;69.29;102047.47;5044394;28;45790;-65
2022/05/08 00:31:57;;;;;;;;;24.00;19.75;;;;;15.75;69.51;102045.75;5045281;28;45520;-65
2022/05/08 00:34:23;;;;;;;;;24.50;19.75;;;;;15.77;70.96;102050.94;5048199;28;45467;-63
2022/05/08 00:36:48;;;;;;;;;24.50;20.50;;;;;15.74;70.06;102048.41;5046972;28;45857;-64
2022/05/08 00:39:16;;;;;;;;;26.00;18.50;;;;;15.72;68.80;102043.22;5044839;28;45593;-65
2022/05/08 00:41:41;;;;;;;;;24.00;16.50;;;;;15.72;69.62;102050.22;5041687;28;45258;-63
2022/05/08 00:44:07;;;;;;;;;18.00;16.75;;;;;15.67;71.54;102047.72;5040767;28;45268;-64
2022/05/08 00:46:32;;;;;;;;;23.75;18.00;;;;;15.64;70.66;102054.81;5057037;28;45387;-67
2022/05/08 00:48:57;;;;;;;;;17.00;10.75;;;;;15.62;70.64;102044.38;5049680;28;45240;-65
2022/05/08 00:51:26;;;;;;;;;30.00;21.50;;;;;15.63;71.08;102053.09;5046782;28;45418;-65
2022/05/08 00:53:54;;;;;;;;;21.00;19.00;;;;;15.60;70.89;102046.16;5043833;28;45547;-65
2022/05/08 00:56:20;;;;;;;;;27.25;18.75;;;;;15.53;71.94;102052.44;5042243;28;46290;-65
2022/05/08 00:58:48;;;;;;;;;24.25;19.25;;;;;15.43;70.13;102051.00;5043120;28;45450;-66
2022/05/08 01:01:14;;;;;;;;;16.75;16.50;;;;;15.28;71.57;102036.53;5043649;28;45249;-66
2022/05/08 01:03:40;;;;;;;;;27.75;19.25;;;;;15.35;70.58;102053.78;5042826;28;45574;-65
2022/05/08 01:06:10;;;;;;;;;21.75;14.25;;;;;15.35;70.85;102059.03;5041429;28;45699;-65
2022/05/08 01:08:39;;;;;;;;;27.00;20.75;;;;;15.32;71.26;102059.13;5041851;28;45696;-65
2022/05/08 01:11:06;;;;;;;;;22.25;20.50;;;;;15.30;70.64;102050.44;5042121;28;45471;-65
2022/05/08 01:13:32;;;;;;;;;24.25;18.00;;;;;15.29;71.46;102058.34;5040250;28;45556;-66
2022/05/08 01:15:58;;;;;;;;;21.00;20.25;;;;;15.24;71.13;102061.09;5039306;28;46396;-65
2022/05/08 01:18:24;;;;;;;;;20.50;17.75;;;;;15.26;71.31;102056.66;5045880;28;45737;-65
2022/05/08 01:20:50;;;;;;;;;20.75;18.50;;;;;15.26;71.09;102063.66;5045814;28;45424;-64
2022/05/08 01:23:16;;;;;;;;;22.25;18.75;;;;;15.24;71.21;102055.84;5049388;28;45512;-66
2022/05/08 01:25:53;;;;;;;;;24.25;17.50;;;;;15.23;71.13;102053.28;5045859;28;46318;-66
2022/05/08 01:28:19;;;;;;;;;27.75;21.25;;;;;15.16;71.58;102048.16;5045096;28;46037;-65
2022/05/08 01:30:48;;;;;;;;;22.25;18.00;;;;;15.09;74.34;102043.13;5047795;28;45450;-64
2022/05/08 01:33:14;;;;;;;;;21.75;17.75;;;;;15.09;71.54;102044.00;5043524;28;45429;-63
2022/05/08 01:35:42;;;;;;;;;24.25;19.25;;;;;15.05;72.65;102041.50;5038346;28;45664;-64
2022/05/08 01:38:09;;;;;;;;;27.25;21.25;;;;;15.03;71.51;102043.31;5048587;28;45376;-64
2022/05/08 01:40:34;;;;;;;;;24.00;21.25;;;;;15.00;73.43;102040.75;5046605;28;45630;-64
2022/05/08 01:43:00;;;;;;;;;25.75;20.25;;;;;14.98;72.62;102039.91;5046522;28;45420;-65
2022/05/08 01:45:26;;;;;;;;;28.25;23.75;;;;;14.97;72.17;102040.81;5047227;28;45506;-65
2022/05/08 01:50:39;;;;;;;;;27.50;20.75;;;;;14.95;72.95;102043.47;5048141;28;45874;-65
2022/05/08 01:53:05;;;;;;;;;31.50;22.00;;;;;14.92;72.28;102043.56;5046682;28;45758;-65
2022/05/08 01:55:30;;;;;;;;;24.00;21.25;;;;;14.92;72.67;102046.19;5047460;28;46182;-66
2022/05/08 01:57:56;;;;;;;;;27.75;22.50;;;;;14.92;72.57;102048.78;5048372;28;45370;-66
2022/05/08 02:00:22;;;;;;;;;25.50;19.00;;;;;14.91;70.96;102053.16;5047697;28;45414;-65
2022/05/08 02:02:48;;;;;;;;;29.00;27.50;;;;;14.91;71.70;102054.94;5047617;28;45694;-65
2022/05/08 02:05:21;;;;;;;;;23.50;21.00;;;;;14.89;72.81;102046.25;5046542;28;46451;-66
2022/05/08 02:07:48;;;;;;;;;21.00;17.25;;;;;14.88;71.71;102052.38;5046062;28;45312;-65
2022/05/08 02:10:16;;;;;;;;;20.25;19.00;;;;;14.87;72.89;102050.66;5048896;28;45705;-66
2022/05/08 02:12:42;;;;;;;;;31.25;25.50;;;;;14.85;72.20;102053.31;5047418;28;45569;-66
2022/05/08 02:15:09;;;;;;;;;25.25;24.00;;;;;14.85;72.73;102049.84;5046271;28;47191;-66
2022/05/08 02:17:36;;;;;;;;;25.25;22.00;;;;;14.84;72.34;102056.84;5050136;28;45744;-66
2022/05/08 02:20:03;;;;;;;;;26.00;22.00;;;;;14.81;72.28;102054.28;5049094;28;45360;-66
2022/05/08 02:22:29;;;;;;;;;33.00;24.00;;;;;14.76;72.33;102050.91;5047660;28;45531;-65
2022/05/08 02:24:54;;;;;;;;;28.25;22.75;;;;;14.71;74.33;102065.00;5040477;28;46166;-66
2022/05/08 02:27:20;;;;;;;;;28.75;27.00;;;;;14.57;76.83;102052.25;5045480;28;45493;-66
2022/05/08 02:29:49;;;;;;;;;31.25;26.00;;;;;14.49;75.54;102059.41;5039292;28;45790;-66
2022/05/08 02:32:15;;;;;;;;;27.25;23.25;;;;;14.38;76.39;102066.59;5040228;28;45569;-66
2022/05/08 02:34:41;;;;;;;;;31.00;24.50;;;;;14.24;78.92;102049.47;5040011;28;45211;-65
2022/05/08 02:37:07;;;;;;;;;32.75;28.50;;;;;14.19;77.42;102066.13;5043921;28;45532;-65
2022/05/08 02:39:32;;;;;;;;;32.50;27.50;;;;;14.09;80.98;102065.47;5045160;28;45624;-64
2022/05/08 02:41:58;;;;;;;;;40.75;34.00;;;;;14.05;77.29;102053.38;5046812;28;46297;-65
2022/05/08 02:44:23;;;;;;;;;38.00;30.50;;;;;14.00;77.72;102056.06;5045615;28;45724;-65
2022/05/08 02:46:48;;;;;;;;;36.75;30.00;;;;;13.96;77.71;102058.78;5039511;28;45264;-65
2022/05/08 02:49:14;;;;;;;;;35.00;28.25;;;;;13.97;77.27;102063.97;5046174;28;45387;-65
2022/05/08 02:51:40;;;;;;;;;34.50;29.50;;;;;13.97;77.48;102066.56;5047364;28;45564;-65
2022/05/08 02:54:05;;;;;;;;;36.00;31.25;;;;;13.99;79.61;102067.41;5048574;28;46375;-66
2022/05/08 02:59:15;;;;;;;;;39.00;32.75;;;;;13.95;77.84;102072.72;5050230;28;45217;-64
2022/05/08 03:01:41;;;;;;;;;50.00;35.75;;;;;13.96;78.33;102066.63;5040201;28;45518;-65
2022/05/08 03:04:06;;;;;;;;;40.50;33.00;;;;;13.98;77.78;102075.28;5039013;28;46989;-65
2022/05/08 03:06:31;;;;;;;;;46.75;36.25;;;;;14.02;78.32;102076.09;5040136;28;45336;-65
2022/05/08 03:08:58;;;;;;;;;37.75;33.00;;;;;14.05;77.90;102084.75;5043931;28;45496;-65
2022/05/08 03:11:27;;;;;;;;;39.25;33.50;;;;;14.03;80.45;102076.06;5043115;28;45570;-67
2022/05/08 03:13:53;;;;;;;;;36.75;34.75;;;;;14.03;81.03;102078.69;5044223;28;46448;-67
2022/05/08 03:16:19;;;;;;;;;40.25;34.25;;;;;14.04;78.42;102080.41;5039998;28;45315;-66
2022/05/08 03:18:45;;;;;;;;;43.50;36.00;;;;;14.06;79.26;102080.38;5040431;28;45317;-66
2022/05/08 03:21:13;;;;;;;;;42.75;35.25;;;;;14.06;78.10;102076.00;5038787;28;45413;-67
2022/05/08 03:23:39;;;;;;;;;54.50;36.75;;;;;14.10;78.85;102079.41;5040002;28;46594;-67
2022/05/08 03:26:05;;;;;;;;;37.25;34.75;;;;;14.13;79.35;102077.59;5039578;28;45503;-67
2022/05/08 03:28:31;;;;;;;;;57.50;41.50;;;;;14.16;77.67;102071.44;5039667;28;45414;-67
2022/05/08 03:30:59;;;;;;;;;48.00;35.00;;;;;14.18;77.90;102077.47;5036942;28;45447;-67
2022/05/08 03:33:25;;;;;;;;;51.25;38.00;;;;;14.18;78.21;102072.25;5036428;28;45655;-64
2022/05/08 03:35:50;;;;;;;;;51.75;42.75;;;;;14.13;77.16;102068.88;5036677;28;45492;-65
2022/05/08 03:38:17;;;;;;;;;47.75;38.25;;;;;14.05;79.02;102073.41;5037309;28;45428;-65
2022/05/08 03:40:43;;;;;;;;;52.00;37.75;;;;;14.02;78.36;102069.13;5036998;28;45481;-66
2022/05/08 03:43:09;;;;;;;;;50.00;36.00;;;;;14.05;78.71;102065.59;5036776;28;46389;-67
2022/05/08 03:45:35;;;;;;;;;49.50;39.75;;;;;14.06;79.49;102075.16;5037697;28;45499;-66
2022/05/08 03:48:02;;;;;;;;;52.75;40.00;;;;;14.06;78.55;102069.91;5039860;28;45329;-66
2022/05/08 03:50:28;;;;;;;;;51.50;38.00;;;;;14.11;78.84;102078.50;5038551;28;45411;-66
2022/05/08 03:52:54;;;;;;;;;45.50;39.75;;;;;14.11;79.51;102075.91;5039661;28;45351;-66
2022/05/08 03:55:20;;;;;;;;;55.75;40.25;;;;;14.12;80.24;102077.63;5039125;28;45307;-66
2022/05/08 03:57:45;;;;;;;;;56.75;42.50;;;;;14.11;78.12;102079.38;5039385;28;45363;-66
2022/05/08 04:00:13;;;;;;;;;57.25;42.00;;;;;14.13;80.46;102081.97;5039056;28;45363;-66
2022/05/08 04:02:39;;;;;;;;;52.75;41.75;;;;;14.11;78.00;102068.06;5039456;28;46549;-66
2022/05/08 04:05:05;;;;;;;;;55.50;43.25;;;;;14.05;77.96;102076.91;5039224;28;45338;-67
2022/05/08 04:07:31;;;;;;;;;55.75;42.50;;;;;14.03;77.62;102081.31;5039673;28;45328;-67
2022/05/08 04:09:57;;;;;;;;;52.50;39.25;;;;;14.04;77.53;102082.16;5044462;28;45242;-66
2022/05/08 04:12:22;;;;;;;;;58.75;42.50;;;;;14.06;78.28;102086.47;5041741;28;45540;-65
2022/05/08 04:14:47;;;;;;;;;50.75;39.75;;;;;14.06;80.39;102094.31;5039267;28;45972;-65
2022/05/08 04:17:13;;;;;;;;;52.00;42.25;;;;;14.03;80.09;102086.53;5039498;28;45311;-65
2022/05/08 04:19:38;;;;;;;;;57.50;43.25;;;;;14.02;80.04;102086.56;5038777;28;45271;-65
2022/05/08 04:24:48;;;;;;;;;54.50;44.25;;;;;13.95;83.11;102089.28;5038447;28;45280;-65
2022/05/08 04:27:13;;;;;;;;;57.50;40.00;;;;;13.93;79.64;102085.84;5039096;28;45236;-65
2022/05/08 04:29:39;;;;;;;;;55.00;40.00;;;;;13.96;79.78;102090.13;5039552;28;45232;-65
2022/05/08 04:32:04;;;;;;;;;60.50;45.50;;;;;13.96;83.40;102093.59;5039142;28;46362;-66
2022/05/08 04:34:30;;;;;;;;;61.50;44.25;;;;;13.98;80.13;102096.19;5038750;28;45514;-65
2022/05/08 04:36:55;;;;;;;;;59.75;44.25;;;;;13.96;79.41;102088.38;5039149;28;45397;-66
2022/05/08 04:39:21;;;;;;;;;59.25;44.75;;;;;13.99;83.05;102096.16;5036191;28;45468;-66
2022/05/08 04:41:46;;;;;;;;;57.00;46.25;;;;;14.03;79.73;102090.91;5038627;28;45444;-66
2022/05/08 04:44:12;;;;;;;;;50.75;39.25;;;;;14.04;80.52;102083.03;5037987;28;45511;-64
2022/05/08 04:46:37;;;;;;;;;58.00;42.00;;;;;14.06;80.60;102098.66;5041357;28;45241;-64
2022/05/08 04:49:03;;;;;;;;;61.00;43.75;;;;;14.07;79.89;102090.78;5042274;28;45344;-65
2022/05/08 04:51:28;;;;;;;;;59.50;45.50;;;;;14.10;79.80;102097.72;5042286;28;47132;-65
2022/05/08 04:53:54;;;;;;;;;58.50;40.25;;;;;14.16;79.77;102098.44;5050863;28;45299;-64
2022/05/08 04:56:19;;;;;;;;;58.75;42.75;;;;;14.23;80.28;102099.19;5042134;28;45376;-65
2022/05/08 04:58:44;;;;;;;;;52.25;40.00;;;;;14.27;81.24;102108.69;5041760;28;45261;-65
2022/05/08 05:01:10;;;;;;;;;56.00;42.00;;;;;14.28;80.59;102111.25;5041857;28;46065;-65
2022/05/08 05:03:36;;;;;;;;;52.00;38.50;;;;;14.27;81.34;102114.78;5041884;28;45357;-66
2022/05/08 05:06:01;;;;;;;;;68.00;49.50;;;;;14.20;79.39;102110.53;5042160;28;45494;-64
2022/05/08 05:08:26;;;;;;;;;55.75;39.50;;;;;14.21;80.57;102116.63;5049137;28;45277;-64
2022/05/08 05:10:52;;;;;;;;;56.00;43.50;;;;;14.21;80.75;102116.63;5051088;28;46417;-64
2022/05/08 05:13:17;;;;;;;;;62.25;45.00;;;;;14.15;81.22;102115.00;5050886;28;45160;-64
2022/05/08 05:15:43;;;;;;;;;56.75;43.25;;;;;14.21;79.86;102125.34;5046151;28;45444;-64
2022/05/08 05:18:08;;;;;;;;;53.00;37.75;;;;;14.24;81.85;102134.91;5041620;28;45429;-63
2022/05/08 05:20:33;;;;;;;;;56.50;42.50;;;;;14.28;79.93;102129.56;5048534;28;46277;-63
2022/05/08 05:23:00;;;;;;;;;56.25;42.75;;;;;14.25;81.40;102139.25;5044491;28;45309;-63
2022/05/08 05:25:26;;;;;;;;;61.50;43.00;;;;;14.28;80.39;102141.78;5050364;28;45383;-63
2022/05/08 05:27:52;;;;;;;;;60.00;39.75;;;;;14.32;80.10;102141.69;5050255;28;45632;-63
2022/05/08 05:30:18;;;;;;;;;55.00;41.25;;;;;14.33;80.50;102147.78;5044633;28;45456;-63
2022/05/08 05:32:43;;;;;;;;;43.25;36.50;;;;;14.26;81.59;102135.72;5041653;28;45430;-63
2022/05/08 05:35:08;;;;;;;;;53.75;42.50;;;;;14.25;80.80;102147.94;5049502;28;45481;-64
2022/05/08 05:37:34;;;;;;;;;58.75;41.25;;;;;14.24;81.05;102142.75;5050594;28;45332;-64
2022/05/08 05:40:00;;;;;;;;;54.75;43.75;;;;;14.26;81.27;102149.66;5040632;28;46523;-63
2022/05/08 05:42:25;;;;;;;;;51.25;38.75;;;;;14.23;80.33;102147.13;5040808;28;45339;-63
2022/05/08 05:44:51;;;;;;;;;55.50;38.50;;;;;14.23;80.52;102144.50;5041353;28;46024;-63
2022/05/08 05:50:01;;;;;;;;;41.25;36.25;;;;;14.17;81.45;102162.91;5041305;28;45252;-64
2022/05/08 05:52:27;;;;;;;;;50.25;40.00;;;;;14.15;81.26;102162.06;5041396;28;45536;-64
2022/05/08 05:54:53;;;;;;;;;58.75;44.25;;;;;14.17;80.53;102162.03;5041084;28;45199;-63
2022/05/08 05:57:18;;;;;;;;;56.00;40.50;;;;;14.18;79.88;102164.63;5040240;28;45263;-63
2022/05/08 05:59:44;;;;;;;;;64.75;49.25;;;;;14.16;79.43;102160.31;5040986;28;45347;-63
2022/05/08 06:02:09;;;;;;;;;58.50;42.00;;;;;14.14;82.65;102159.50;5039680;28;45291;-63
2022/05/08 06:04:35;;;;;;;;;52.50;39.50;;;;;14.12;81.39;102163.91;5041165;28;45284;-63
2022/05/08 06:07:00;;;;;;;;;57.50;37.50;;;;;14.13;80.35;102174.31;5041237;28;45545;-63
2022/05/08 06:09:25;;;;;;;;;57.25;43.00;;;;;14.15;80.56;102167.31;5047426;28;45518;-63
2022/05/08 06:11:53;;;;;;;;;53.75;42.00;;;;;14.21;79.79;102177.63;5041080;28;45289;-63
2022/05/08 06:14:18;;;;;;;;;58.25;43.75;;;;;14.22;80.21;102178.53;5040652;28;45492;-63
2022/05/08 06:16:44;;;;;;;;;50.25;39.00;;;;;14.25;81.04;102179.31;5039303;28;45522;-63
2022/05/08 06:19:09;;;;;;;;;52.00;38.00;;;;;14.29;79.96;102177.50;5039235;28;46205;-63
2022/05/08 06:21:34;;;;;;;;;62.00;43.00;;;;;14.29;79.92;102162.66;5038382;28;45379;-62
2022/05/08 06:24:00;;;;;;;;;47.00;35.75;;;;;14.28;81.69;102183.63;5039308;28;45674;-64
2022/05/08 06:26:25;;;;;;;;;57.00;42.25;;;;;14.21;81.88;102182.00;5038629;28;45366;-64
2022/05/08 06:28:51;;;;;;;;;49.75;37.00;;;;;14.18;82.45;102182.94;5038655;28;46342;-64
2022/05/08 06:31:17;;;;;;;;;50.75;36.25;;;;;14.19;80.95;102187.25;5039551;28;45339;-64
2022/05/08 06:33:46;;;;;;;;;51.75;38.50;;;;;14.21;80.08;102177.63;5041035;28;45301;-64
2022/05/08 06:36:12;;;;;;;;;52.75;38.75;;;;;14.24;80.72;102190.69;5038737;28;45432;-64
2022/05/08 06:38:38;;;;;;;;;47.50;38.00;;;;;14.27;79.92;102182.75;5040577;28;45449;-65
2022/05/08 06:41:03;;;;;;;;;52.00;40.50;;;;;14.34;80.75;102185.25;5040162;28;45396;-64
2022/05/08 06:43:29;;;;;;;;;53.75;39.50;;;;;14.37;80.33;102174.72;5040437;28;45358;-64
2022/05/08 06:45:54;;;;;;;;;55.00;42.50;;;;;14.44;80.26;102179.84;5040640;28;45309;-64
2022/05/08 06:48:19;;;;;;;;;49.50;41.00;;;;;14.51;80.06;102180.56;5040644;28;45586;-64
2022/05/08 06:50:45;;;;;;;;;57.50;44.75;;;;;14.53;79.88;102173.56;5040571;28;45607;-64
2022/05/08 06:53:10;;;;;;;;;30.50;26.25;;;;;14.59;80.49;102179.50;5040382;28;45598;-64
2022/05/08 06:55:36;;;;;;;;;53.50;42.00;;;;;14.66;81.10;102188.09;5039366;28;45261;-64
2022/05/08 06:58:02;;;;;;;;;51.00;38.50;;;;;14.69;80.79;102187.19;5039739;28;46184;-64
2022/05/08 07:03:12;;;;;;;;;55.25;42.00;;;;;14.85;79.23;102194.66;5040440;28;45481;-65
2022/05/08 07:05:45;;;;;;;;;53.75;40.00;;;;;14.90;79.33;102194.56;5040352;28;45319;-64
2022/05/08 07:08:11;;;;;;;;;53.25;41.00;;;;;14.97;78.95;102198.75;5039108;28;46360;-64
2022/05/08 07:10:36;;;;;;;;;56.50;44.00;;;;;15.05;78.63;102201.22;5046408;28;45263;-64
2022/05/08 07:13:01;;;;;;;;;45.50;38.50;;;;;15.10;78.14;102201.97;5039318;28;45474;-64
2022/05/08 07:15:27;;;;;;;;;59.75;47.00;;;;;15.06;78.34;102206.41;5039791;28;45291;-64
2022/05/08 07:17:52;;;;;;;;;54.00;40.75;;;;;15.07;78.41;102209.91;5040445;28;45523;-64
2022/05/08 07:20:17;;;;;;;;;48.75;38.00;;;;;15.04;79.14;102210.81;5039991;28;45224;-65
2022/05/08 07:22:43;;;;;;;;;40.25;29.50;;;;;15.04;78.35;102204.72;5038101;28;45190;-66
2022/05/08 07:25:08;;;;;;;;;58.00;43.00;;;;;15.03;78.00;102200.41;5039957;28;45193;-65
2022/05/08 07:27:36;;;;;;;;;54.25;41.75;;;;;15.09;78.27;102208.09;5039576;28;46481;-66
2022/05/08 07:30:06;;;;;;;;;50.25;40.50;;;;;15.13;78.52;102212.38;5039752;28;45925;-67
2022/05/08 07:32:33;;;;;;;;;50.00;39.75;;;;;15.12;77.93;102218.50;5040020;28;45247;-65
2022/05/08 07:37:43;;;;;;;;;48.00;36.00;;;;;15.09;78.58;102232.53;5039137;28;45748;-65
2022/05/08 07:40:10;;;;;;;;;48.50;38.00;;;;;15.00;79.57;102217.00;5039353;28;45880;-66
2022/05/08 07:42:36;;;;;;;;;53.00;42.50;;;;;15.00;78.89;102218.75;5039137;28;45485;-64
2022/05/08 07:45:01;;;;;;;;;54.00;42.25;;;;;15.06;78.45;102219.50;5039872;28;45384;-65
2022/05/08 07:47:27;;;;;;;;;54.00;41.00;;;;;15.11;78.51;102230.72;5039549;28;46069;-65
2022/05/08 07:49:52;;;;;;;;;48.00;40.25;;;;;15.15;78.62;102223.66;5038490;28;45241;-65
2022/05/08 07:52:17;;;;;;;;;50.25;37.25;;;;;15.20;77.98;102233.13;5039430;28;45354;-65
2022/05/08 07:54:46;;;;;;;;;55.25;37.75;;;;;15.28;78.12;102226.88;5038916;28;45541;-66
2022/05/08 07:57:12;;;;;;;;;59.00;44.50;;;;;15.36;77.67;102236.25;5039382;28;45549;-65
2022/05/08 07:59:38;;;;;;;;;54.00;40.50;;;;;15.37;77.43;102235.34;5039517;28;45356;-65
2022/05/08 08:02:03;;;;;;;;;55.25;41.00;;;;;15.37;77.29;102232.75;5039438;28;45209;-65
2022/05/08 08:04:29;;;;;;;;;48.75;38.25;;;;;15.43;77.77;102230.00;5039507;28;45299;-65
2022/05/08 08:06:54;;;;;;;;;54.00;40.50;;;;;15.52;77.22;102236.75;5039249;28;46444;-66
2022/05/08 08:09:20;;;;;;;;;61.50;43.50;;;;;15.52;77.30;102242.00;5045753;28;45355;-67
2022/05/08 08:11:46;;;;;;;;;52.00;35.50;;;;;15.50;76.81;102251.66;5032360;28;45407;-65
2022/05/08 08:14:11;;;;;;;;;49.25;37.25;;;;;15.55;76.56;102255.03;5043625;28;45517;-64
2022/05/08 08:16:37;;;;;;;;;50.00;34.50;;;;;15.62;76.53;102242.69;5038998;28;46530;-68
2022/05/08 08:19:02;;;;;;;;;54.50;40.25;;;;;15.63;76.33;102236.56;5039274;28;45294;-66
2022/05/08 08:21:28;;;;;;;;;52.25;41.00;;;;;15.72;76.15;102239.78;5042298;28;45349;-64
2022/05/08 08:23:53;;;;;;;;;51.50;39.00;;;;;15.84;75.74;102240.41;5042742;28;45323;-63
2022/05/08 08:26:18;;;;;;;;;57.50;43.00;;;;;15.84;75.46;102225.53;5042320;28;45381;-67
2022/05/08 08:28:44;;;;;;;;;54.25;38.00;;;;;15.96;75.29;102232.19;5041128;28;45381;-62
2022/05/08 08:31:10;;;;;;;;;51.50;39.00;;;;;16.02;75.04;102235.53;5042491;28;45834;-63
2022/05/08 08:33:40;;;;;;;;;52.25;38.25;;;;;16.11;74.83;102237.03;5042757;28;45466;-61
2022/05/08 08:36:07;;;;;;;;;55.50;40.00;;;;;16.14;74.34;102234.34;5042845;28;45380;-62
2022/05/08 08:38:32;;;;;;;;;54.50;41.00;;;;;16.19;74.47;102234.22;5042666;28;45319;-62
2022/05/08 08:41:03;;;;;;;;;48.25;35.00;;;;;16.30;74.16;102235.66;5039793;28;45395;-63
2022/05/08 08:43:31;;;;;;;;;56.25;41.75;;;;;16.40;73.66;102231.84;5041587;28;45343;-62
2022/05/08 08:48:47;;;;;;;;;52.75;39.00;;;;;16.46;73.61;102246.59;5042168;28;45346;-63
2022/05/08 08:51:13;;;;;;;;;55.25;38.25;;;;;16.45;73.42;102242.25;5042623;28;45359;-63
2022/05/08 08:53:38;;;;;;;;;54.50;40.50;;;;;16.45;73.29;102252.75;5042331;28;45226;-63
2022/05/08 08:56:05;;;;;;;;;57.50;42.75;;;;;16.36;73.47;102234.59;5040830;28;47082;-63
2022/05/08 08:58:30;;;;;;;;;54.00;41.75;;;;;16.32;73.82;102243.47;5041917;28;45213;-63
2022/05/08 09:00:56;;;;;;;;;55.25;40.50;;;;;16.41;73.46;102237.97;5042434;28;45332;-63
2022/05/08 09:03:25;;;;;;;;;56.50;42.00;;;;;16.48;73.34;102234.28;5042575;28;45258;-63
2022/05/08 09:05:59;;;;;;;;;56.50;42.50;;;;;16.62;72.95;102242.63;5040776;28;48079;-62
2022/05/08 09:08:32;;;;;;;;;54.50;42.00;;;;;16.64;72.51;102225.06;5042502;28;45928;-63
2022/05/08 09:10:59;;;;;;;;;52.50;39.25;;;;;16.62;72.43;102239.16;5042198;28;45742;-63
2022/05/08 09:13:26;;;;;;;;;52.75;40.75;;;;;16.63;72.37;102239.09;5046142;28;45324;-63
2022/05/08 09:16:07;;;;;;;;;52.25;39.00;;;;;16.69;72.22;102244.19;5042127;28;46332;-64
2022/05/08 09:18:46;;;;;;;;;52.50;39.50;;;;;16.75;72.07;102239.66;5029228;28;45521;-64
2022/05/08 09:24:10;;;;;;;;;56.00;42.25;;;;;16.87;71.73;102241.94;5041989;28;45288;-63
2022/05/08 09:26:36;;;;;;;;;51.25;38.75;;;;;16.88;71.32;102235.78;5042071;28;45457;-63
2022/05/08 09:29:03;;;;;;;;;51.00;39.25;;;;;16.98;71.33;102245.09;5041534;28;45359;-63
2022/05/08 09:31:38;;;;;;;;;56.25;43.75;;;;;17.05;71.17;102237.91;5041144;28;45326;-63
2022/05/08 09:34:03;;;;;;;;;52.75;41.75;;;;;17.11;71.03;102241.19;5041590;28;45367;-64
2022/05/08 09:36:29;;;;;;;;;55.25;41.75;;;;;17.16;70.80;102246.31;5041572;28;45360;-63
2022/05/08 09:38:58;;;;;;;;;38.25;25.50;;;;;17.07;70.19;102244.81;5042002;28;45329;-63
2022/05/08 09:41:39;;;;;;;;;52.50;39.00;;;;;17.04;70.36;102247.56;5041724;28;45216;-63
2022/05/08 09:44:18;;;;;;;;;51.75;42.50;;;;;17.00;70.22;102238.03;5040778;28;45307;-63
2022/05/08 09:46:45;;;;;;;;;54.00;41.50;;;;;17.03;70.15;102244.06;5041376;28;45388;-63
2022/05/08 09:49:37;;;;;;;;;56.50;43.75;;;;;17.13;70.26;102246.41;5041668;28;45903;-62
2022/05/08 09:52:03;;;;;;;;;55.25;42.25;;;;;17.28;70.14;102248.56;5039184;28;45545;-63
2022/05/08 09:54:29;;;;;;;;;56.25;43.00;;;;;17.38;69.21;102244.72;5041376;28;45234;-63
2022/05/08 09:56:55;;;;;;;;;60.75;44.50;;;;;17.49;69.48;102247.03;5040876;28;45576;-63
2022/05/08 09:59:21;;;;;;;;;53.75;42.50;;;;;17.58;69.48;102244.94;5041488;28;45173;-63
2022/05/08 10:01:46;;;;;;;;;54.50;42.50;;;;;17.70;68.87;102235.84;5041358;28;45471;-63
2022/05/08 10:04:12;;;;;;;;;54.00;41.25;;;;;17.80;67.61;102236.38;5041227;28;45281;-63
2022/05/08 10:06:39;;;;;;;;;52.25;41.50;;;;;17.90;68.18;102233.38;5040968;28;45435;-63
2022/05/08 10:14:34;;;;;;;;;51.25;38.75;;;;;18.22;66.73;102231.41;5040835;28;45315;-63
2022/05/08 10:16:59;;;;;;;;;56.25;44.75;;;;;18.37;65.91;102225.56;5040931;28;46169;-63
2022/05/08 10:19:25;;;;;;;;;57.33;44.67;;;;;18.62;66.43;102216.78;5040900;28;45337;-63
2022/05/08 10:21:56;;;;;;;;;49.25;41.00;;;;;18.76;64.72;102220.63;5040814;28;45371;-63
2022/05/08 10:24:36;;;;;;;;;60.75;43.25;;;;;18.94;64.59;102226.13;5040501;28;45356;-63
2022/05/08 10:27:16;;;;;;;;;54.00;41.75;;;;;19.13;64.89;102222.72;5040553;28;45321;-63
2022/05/08 10:29:42;;;;;;;;;48.75;39.50;;;;;19.41;64.53;102222.44;5040596;28;45343;-63
2022/05/08 10:32:09;;;;;;;;;53.25;41.00;;;;;19.56;62.52;102218.38;5038861;28;45316;-63
2022/05/08 10:34:37;;;;;;;;;50.00;41.00;;;;;19.62;62.88;102212.84;5038741;28;45327;-63
2022/05/08 10:37:12;;;;;;;;;55.75;44.75;;;;;19.66;61.23;102213.59;5040428;28;46231;-63
2022/05/08 10:39:47;;;;;;;;;49.75;39.50;;;;;19.78;61.55;102213.03;5028468;28;45157;-63
2022/05/08 10:42:24;;;;;;;;;52.00;40.25;;;;;19.89;61.52;102213.47;5039930;28;45589;-65
2022/05/08 10:44:50;;;;;;;;;55.25;42.75;;;;;20.01;61.28;102207.63;5040177;28;45299;-66
2022/05/08 10:47:36;;;;;;;;;57.50;42.50;;;;;20.23;61.34;102197.00;5040533;28;45470;-67
2022/05/08 10:50:06;;;;;;;;;57.00;44.00;;;;;20.40;60.32;102204.16;5040390;28;45939;-66
2022/05/08 10:52:33;;;;;;;;;58.00;44.00;;;;;20.38;58.95;102206.00;5040624;28;45358;-67
2022/05/08 10:55:04;;;;;;;;;53.50;41.50;;;;;20.24;58.49;102200.50;5039919;28;45197;-62
2022/05/08 10:57:34;;;;;;;;;53.50;42.25;;;;;20.24;59.24;102211.94;5039956;28;45500;-62
2022/05/08 11:00:00;;;;;;;;;50.75;40.75;;;;;20.26;59.27;102214.50;5039247;28;45387;-65
2022/05/08 11:02:47;;;;;;;;;55.00;43.00;;;;;20.37;59.62;102212.22;5040613;28;45465;-64
2022/05/08 11:05:16;;;;;;;;;44.00;35.00;;;;;20.45;57.79;102211.91;5034824;28;45665;-67
2022/05/08 11:07:53;;;;;;;;;53.25;41.00;;;;;20.32;57.43;102204.50;5039267;28;46083;-66
2022/05/08 11:10:28;;;;;;;;;48.75;37.75;;;;;20.35;57.85;102204.38;5046463;28;45246;-64
2022/05/08 11:13:01;;;;;;;;;52.50;42.75;;;;;20.40;57.74;102209.44;5039480;28;45232;-66
2022/05/08 11:15:28;;;;;;;;;54.25;40.25;;;;;20.38;57.06;102197.22;5039377;28;45305;-67
2022/05/08 11:18:08;;;;;;;;;52.25;40.25;;;;;20.51;58.10;102198.44;5039627;28;46393;-68
2022/05/08 11:20:38;;;;;;;;;51.00;40.50;;;;;20.53;56.22;102202.72;5038686;28;45998;-66
2022/05/08 11:23:05;;;;;;;;;49.25;39.25;;;;;20.45;57.51;102210.13;5039173;28;45210;-67
2022/05/08 11:25:32;;;;;;;;;50.25;40.00;;;;;20.24;57.06;102196.09;5039492;28;45482;-64
2022/05/08 11:27:58;;;;;;;;;51.50;40.25;;;;;20.25;57.49;102203.06;5039401;28;46236;-64
2022/05/08 11:30:35;;;;;;;;;45.50;36.75;;;;;20.35;57.05;102199.09;5037656;28;45360;-66
2022/05/08 11:36:05;;;;;;;;;51.75;40.00;;;;;20.78;55.79;102194.50;5039452;28;45476;-66
2022/05/08 11:38:40;;;;;;;;;48.25;37.25;;;;;20.96;54.73;102193.63;5039912;28;45357;-63